Air Resources Laboratory banner image
Air Resources Laboratory web site National Oceanic and Atmospheric Administration (NOAA)

wa metar


KALW 211753Z 22004KT 4SM BR OVC002 M02/M04 A2998 RMK AO2 SLP165 I6003 T10221044
 11022 21028 55001=
KAWO 211756Z AUTO 21003KT 10SM -RA OVC060 09/03 A2978 RMK AO2 RAB54 SLP090
 P0000 60000 T00940033 10122 20078 53007=
KBFI 211753Z 35003KT 10SM -RA OVC060 10/04 A2978 RMK AO2 SLP084 P0000 60000
 T01000039 10106 20083 53003=
KBLI 211753Z 34006KT 10SM -RA OVC060 07/04 A2973 RMK AO2 SLP074 P0005 60006
 T00720044 10072 20061 56008 $=
KBVS 211755Z AUTO 18008G13KT 10SM BKN060 OVC065 11/01 A2975 RMK A01=
KCLM 211753Z AUTO 27004KT 10SM CLR 09/07 A2969 RMK AO2 SLP057 60002 T00890072
 10089 20056 56002=
KDEW 211753Z AUTO 01005KT 10SM CLR 01/M03 A2996 RMK AO2 SLP165 T00061033 10011
 21039 58009=
KEAT 211755Z AUTO 00000KT 10SM SCT110 00/M02 A2996 RMK AO2 SLP158 T00001017
 10000 21028 58008=
KELN 211753Z AUTO 00000KT 10SM OVC090 01/M02 A2994 RMK AO2 SLP156 T00061022
 10006 21028 58003=
KEPH 211753Z AUTO 02004KT 10SM BKN100 03/M01 A2996 RMK AO2 SLP157 T00281006
 10028 21011 58004=
KFHR 211753Z AUTO 14009G22KT 10SM -RA OVC070 11/03 A2971 RMK AO2 RAE14B32
 SLP062 P0000 60000 T01060033 10122 20094 53001=
KGEG 211753Z 02006KT 9SM SCT140 OVC180 M01/M03 A2995 RMK AO2 SLP161 T10061033
 11006 21022 56007=
KGRF 211758Z 29003KT 10SM OVC065 07/07 A2978 RMK AO2A RAB1658E15 SLP090 P0000
 60000 T00710070 10071 20054 50004 $=
KHQM 211753Z AUTO 06008KT 7SM OVC021 09/07 A2975 RMK AO2 RAB17E30 SLP079 P0000
 60007 T00940072 10094 20072 53004=
KKLS 211756Z AUTO 14006KT 10SM -RA OVC060 07/03 A2984 RMK AO2 RAB00 SLP110
 P0001 60001 T00720028 10072 20061 53011=
KMWH 211752Z 00000KT 6SM BR OVC110 M02/M04 A2998 RMK AO2 SLP167 T10171039 11017
 21056 56006=
KNOW 211750Z AUTO 26009KT 10SM BKN080 09/07 A2968 RMK AO2 T00900071 10090 20070=
KNUW 211756Z 15018G24KT 10SM SCT050 BKN100 OVC180 13/01 A2977 RMK AO2 SLP082
 VIRGA NW-N T01280011 10133 20117 51003 $=
KOLM 211754Z 00000KT 7SM -RA OVC060 06/05 A2979 RMK AO2 RAB21 SLP089 P0000
 60006 T00610050 10067 20044 55001=
KOMK 211753Z AUTO 00000KT 8SM FEW120 M02/M02 A2998 RMK AO2 SLP169 I6000
 T10171022 11017 21050 58004=
KORS 211755Z AUTO 19008KT 6SM -RA FEW040 SCT046 OVC060 11/06 A2971 RMK AO2
 P0002=
KPAE 211753Z 19009KT 10SM -RA OVC055 09/03 A2979 RMK AO2 RAB29 SLP090 P0000
 60000 T00890028 10106 20083 53007=
KPSC 211753Z 00000KT 1SM BR VV003 M01/M02 A3003 RMK AO2 SLP175 T10111017 11011
 21017 58002 RVRNO=
KPUW 211753Z AUTO 11013KT 10SM CLR 07/M04 A2994 RMK AO2 SLP152 T00671039 10072
 20022 58004=
KPWT 211756Z AUTO 21003KT 8SM -RA OVC048 07/07 A2978 RMK AO2 SLP104 P0003 60010
 T00670067 10072 20056=
KRNT 211753Z VRB03KT 10SM OVC065 10/03 A2978 RMK AO2 SLP088 T01000028 10117
 20083 53001=
KSEA 211753Z 26007KT 10SM OVC060 09/05 A2979 RMK AO2 SLP094 T00940050 10117
 20089 53004=
KSFF 211753Z 00000KT 10SM CLR 01/M02 A2997 RMK AO2 SLP164 I1000 I6000 T00061022
 10006 21039 56009=
KSHN 211753Z AUTO 00000KT 6SM -RA BR BKN036 OVC055 08/06 A2977 RMK AO2 RAE02B44
 SLP083 P0001 60027 T00780056 10078 20056 53003=
KSKA 211758Z AUTO 04006KT 10SM SCT130 BKN180 M01/M01 A2993 RMK AO2 SLP161
 T10071008 11007 21031 58005 $=
KTCM 211758Z AUTO 00000KT 10SM OVC065 08/08 A2979 RMK AO2 SLP094 60000
 T00750075 10075 20054 50006 $=
KTIW 211753Z 00000KT 10SM -RA OVC060 07/06 A2979 RMK AO2 RAE20B53 SLP089 P0001
 60003 T00720061 10078 20061 51005=
KUIL 211753Z AUTO 16010G19KT 130V190 7SM -RA OVC017 10/10 A2969 RMK AO2 SLP054
 P0008 60025 T01000100 10106 20094 51007=
KVUO 211753Z AUTO VRB05KT 10SM -RA BKN070 OVC080 08/01 A2986 RMK AO2 RAB52
 SLP111 P0000 60000 T00780006 10078 20056 53014=
KYKM 211753Z 00000KT 5SM HZ BKN075 OVC090 M01/M04 A2997 RMK AO2 SLP163
 T10111039 11011 21044 58005=